sensor_id;sensor_type;location;lat;lon;timestamp;temperature;humidity
21559;DHT22;10940;48.890;8.240;2023-07-13T00:01:48;19.50;99.90
21559;DHT22;10940;48.890;8.240;2023-07-13T00:04:16;19.50;99.90
21559;DHT22;10940;48.890;8.240;2023-07-13T00:06:43;19.40;99.90
21559;DHT22;10940;48.890;8.240;2023-07-13T00:09:11;19.40;99.90
21559;DHT22;10940;48.890;8.240;2023-07-13T00:11:38;19.40;99.90
21559;DHT22;10940;48.890;8.240;2023-07-13T00:14:04;19.40;99.90
21559;DHT22;10940;48.890;8.240;2023-07-13T00:16:29;19.30;99.90
21559;DHT22;10940;48.890;8.240;2023-07-13T00:18:55;19.30;99.90
21559;DHT22;10940;48.890;8.240;2023-07-13T00:21:20;19.20;99.90
21559;DHT22;10940;48.890;8.240;2023-07-13T00:23:46;19.20;99.90
21559;DHT22;10940;48.890;8.240;2023-07-13T00:26:12;19.10;99.90
21559;DHT22;10940;48.890;8.240;2023-07-13T00:28:39;19.10;99.90
21559;DHT22;10940;48.890;8.240;2023-07-13T00:31:05;19.10;99.90
21559;DHT22;10940;48.890;8.240;2023-07-13T00:33:31;19.10;99.90
21559;DHT22;10940;48.890;8.240;2023-07-13T00:35:56;19.00;99.90
21559;DHT22;10940;48.890;8.240;2023-07-13T00:38:22;19.00;99.90
21559;DHT22;10940;48.890;8.240;2023-07-13T00:40:48;19.00;99.90
21559;DHT22;10940;48.890;8.240;2023-07-13T00:43:20;19.00;99.90
21559;DHT22;10940;48.890;8.240;2023-07-13T00:48:20;19.00;99.90
21559;DHT22;10940;48.890;8.240;2023-07-13T00:50:50;19.00;99.90
21559;DHT22;10940;48.890;8.240;2023-07-13T00:53:18;19.00;99.90
21559;DHT22;10940;48.890;8.240;2023-07-13T00:55:44;18.90;99.90
21559;DHT22;10940;48.890;8.240;2023-07-13T00:58:10;18.90;99.90
21559;DHT22;10940;48.890;8.240;2023-07-13T01:00:36;18.90;99.90
21559;DHT22;10940;48.890;8.240;2023-07-13T01:03:03;18.80;99.90
21559;DHT22;10940;48.890;8.240;2023-07-13T01:05:31;18.80;99.90
21559;DHT22;10940;48.890;8.240;2023-07-13T01:07:57;18.80;99.90
21559;DHT22;10940;48.890;8.240;2023-07-13T01:10:25;18.70;99.90
21559;DHT22;10940;48.890;8.240;2023-07-13T01:12:51;18.70;99.90
21559;DHT22;10940;48.890;8.240;2023-07-13T01:18:28;18.60;99.90
21559;DHT22;10940;48.890;8.240;2023-07-13T01:23:23;18.50;99.90
21559;DHT22;10940;48.890;8.240;2023-07-13T01:25:50;18.50;99.90
21559;DHT22;10940;48.890;8.240;2023-07-13T01:28:15;18.40;99.90
21559;DHT22;10940;48.890;8.240;2023-07-13T01:30:43;18.40;99.90
21559;DHT22;10940;48.890;8.240;2023-07-13T01:33:12;18.40;99.90
21559;DHT22;10940;48.890;8.240;2023-07-13T01:35:38;18.30;99.90
21559;DHT22;10940;48.890;8.240;2023-07-13T01:38:04;18.30;99.90
21559;DHT22;10940;48.890;8.240;2023-07-13T01:40:30;18.30;99.90
21559;DHT22;10940;48.890;8.240;2023-07-13T01:42:55;18.30;99.90
21559;DHT22;10940;48.890;8.240;2023-07-13T01:45:21;18.20;99.90
21559;DHT22;10940;48.890;8.240;2023-07-13T01:47:47;18.10;99.90
21559;DHT22;10940;48.890;8.240;2023-07-13T01:50:12;18.00;99.90
21559;DHT22;10940;48.890;8.240;2023-07-13T01:52:38;17.90;99.90
21559;DHT22;10940;48.890;8.240;2023-07-13T01:55:04;17.80;99.90
21559;DHT22;10940;48.890;8.240;2023-07-13T01:57:30;17.80;99.90
21559;DHT22;10940;48.890;8.240;2023-07-13T01:59:55;17.80;99.90
21559;DHT22;10940;48.890;8.240;2023-07-13T02:02:21;17.80;99.90
21559;DHT22;10940;48.890;8.240;2023-07-13T02:04:46;17.80;99.90
21559;DHT22;10940;48.890;8.240;2023-07-13T02:07:12;17.80;99.90
21559;DHT22;10940;48.890;8.240;2023-07-13T02:09:37;17.80;99.90
21559;DHT22;10940;48.890;8.240;2023-07-13T02:12:03;17.80;99.90
21559;DHT22;10940;48.890;8.240;2023-07-13T02:14:29;17.80;99.90
21559;DHT22;10940;48.890;8.240;2023-07-13T02:16:55;17.70;99.90
21559;DHT22;10940;48.890;8.240;2023-07-13T02:19:20;17.70;99.90
21559;DHT22;10940;48.890;8.240;2023-07-13T02:21:47;17.50;99.90
21559;DHT22;10940;48.890;8.240;2023-07-13T02:24:12;17.40;99.90
21559;DHT22;10940;48.890;8.240;2023-07-13T02:26:43;17.30;99.90
21559;DHT22;10940;48.890;8.240;2023-07-13T02:29:09;17.20;99.90
21559;DHT22;10940;48.890;8.240;2023-07-13T02:31:35;17.20;99.90
21559;DHT22;10940;48.890;8.240;2023-07-13T02:34:01;17.20;99.90
21559;DHT22;10940;48.890;8.240;2023-07-13T02:36:27;17.20;99.90
21559;DHT22;10940;48.890;8.240;2023-07-13T02:38:52;17.20;99.90
21559;DHT22;10940;48.890;8.240;2023-07-13T02:41:18;17.20;99.90
21559;DHT22;10940;48.890;8.240;2023-07-13T02:43:44;17.20;99.90
21559;DHT22;10940;48.890;8.240;2023-07-13T02:46:09;17.20;99.90
21559;DHT22;10940;48.890;8.240;2023-07-13T02:48:36;17.20;99.90
21559;DHT22;10940;48.890;8.240;2023-07-13T02:51:02;17.20;99.90
21559;DHT22;10940;48.890;8.240;2023-07-13T02:53:28;17.10;99.90
21559;DHT22;10940;48.890;8.240;2023-07-13T02:55:54;17.20;99.90
21559;DHT22;10940;48.890;8.240;2023-07-13T02:58:19;17.10;99.90
21559;DHT22;10940;48.890;8.240;2023-07-13T03:00:46;17.10;99.90
21559;DHT22;10940;48.890;8.240;2023-07-13T03:03:13;17.00;99.90
21559;DHT22;10940;48.890;8.240;2023-07-13T03:05:41;17.00;99.90
21559;DHT22;10940;48.890;8.240;2023-07-13T03:08:07;17.00;99.90
21559;DHT22;10940;48.890;8.240;2023-07-13T03:10:33;16.90;99.90
21559;DHT22;10940;48.890;8.240;2023-07-13T03:12:59;16.90;99.90
21559;DHT22;10940;48.890;8.240;2023-07-13T03:15:24;16.70;99.90
21559;DHT22;10940;48.890;8.240;2023-07-13T03:17:50;16.70;99.90
21559;DHT22;10940;48.890;8.240;2023-07-13T03:20:16;16.70;99.90
21559;DHT22;10940;48.890;8.240;2023-07-13T03:22:42;16.60;99.90
21559;DHT22;10940;48.890;8.240;2023-07-13T03:25:07;16.60;99.90
21559;DHT22;10940;48.890;8.240;2023-07-13T03:27:33;16.60;99.90
21559;DHT22;10940;48.890;8.240;2023-07-13T03:29:59;16.50;99.90
21559;DHT22;10940;48.890;8.240;2023-07-13T03:32:24;16.50;99.90
21559;DHT22;10940;48.890;8.240;2023-07-13T03:34:50;16.50;99.90
21559;DHT22;10940;48.890;8.240;2023-07-13T03:37:16;16.50;99.90
21559;DHT22;10940;48.890;8.240;2023-07-13T03:39:41;16.50;99.90
21559;DHT22;10940;48.890;8.240;2023-07-13T03:42:07;16.50;99.90
21559;DHT22;10940;48.890;8.240;2023-07-13T03:44:33;16.50;99.90
21559;DHT22;10940;48.890;8.240;2023-07-13T03:46:58;16.50;99.90
21559;DHT22;10940;48.890;8.240;2023-07-13T03:49:24;16.50;99.90
21559;DHT22;10940;48.890;8.240;2023-07-13T03:51:50;16.60;99.90
21559;DHT22;10940;48.890;8.240;2023-07-13T03:54:15;16.50;99.90
21559;DHT22;10940;48.890;8.240;2023-07-13T03:56:41;16.50;99.90
21559;DHT22;10940;48.890;8.240;2023-07-13T03:59:06;16.50;99.90
21559;DHT22;10940;48.890;8.240;2023-07-13T04:01:32;16.50;99.90
21559;DHT22;10940;48.890;8.240;2023-07-13T04:03:58;16.50;99.90
21559;DHT22;10940;48.890;8.240;2023-07-13T04:06:27;16.50;99.90
21559;DHT22;10940;48.890;8.240;2023-07-13T04:08:56;16.60;99.90
21559;DHT22;10940;48.890;8.240;2023-07-13T04:11:24;16.50;99.90
21559;DHT22;10940;48.890;8.240;2023-07-13T04:13:50;16.50;99.90
21559;DHT22;10940;48.890;8.240;2023-07-13T04:16:17;16.50;99.90
21559;DHT22;10940;48.890;8.240;2023-07-13T04:18:44;16.50;99.90
21559;DHT22;10940;48.890;8.240;2023-07-13T04:21:10;16.50;99.90
21559;DHT22;10940;48.890;8.240;2023-07-13T04:23:36;16.50;99.90
21559;DHT22;10940;48.890;8.240;2023-07-13T04:26:02;16.60;99.90
21559;DHT22;10940;48.890;8.240;2023-07-13T04:28:28;16.60;99.90
21559;DHT22;10940;48.890;8.240;2023-07-13T04:30:54;16.60;99.90
21559;DHT22;10940;48.890;8.240;2023-07-13T04:33:20;16.70;99.90
21559;DHT22;10940;48.890;8.240;2023-07-13T04:35:50;16.70;99.90
21559;DHT22;10940;48.890;8.240;2023-07-13T04:38:20;16.70;99.90
21559;DHT22;10940;48.890;8.240;2023-07-13T04:40:45;16.80;99.90
21559;DHT22;10940;48.890;8.240;2023-07-13T04:43:11;16.80;99.90
21559;DHT22;10940;48.890;8.240;2023-07-13T04:45:37;16.80;99.90
21559;DHT22;10940;48.890;8.240;2023-07-13T04:48:03;16.80;99.90
21559;DHT22;10940;48.890;8.240;2023-07-13T04:50:29;16.90;99.90
21559;DHT22;10940;48.890;8.240;2023-07-13T04:52:54;17.00;99.90
21559;DHT22;10940;48.890;8.240;2023-07-13T04:55:20;17.00;99.90
21559;DHT22;10940;48.890;8.240;2023-07-13T04:57:47;17.00;99.90
21559;DHT22;10940;48.890;8.240;2023-07-13T05:00:13;17.00;99.90
21559;DHT22;10940;48.890;8.240;2023-07-13T05:02:42;17.10;99.90
21559;DHT22;10940;48.890;8.240;2023-07-13T05:05:08;17.10;99.90
21559;DHT22;10940;48.890;8.240;2023-07-13T05:07:34;17.10;99.90
21559;DHT22;10940;48.890;8.240;2023-07-13T05:10:00;17.10;99.90
21559;DHT22;10940;48.890;8.240;2023-07-13T05:12:26;17.10;99.90
21559;DHT22;10940;48.890;8.240;2023-07-13T05:14:51;17.10;99.90
21559;DHT22;10940;48.890;8.240;2023-07-13T05:17:17;17.10;99.90
21559;DHT22;10940;48.890;8.240;2023-07-13T05:19:43;17.20;99.90
21559;DHT22;10940;48.890;8.240;2023-07-13T05:22:09;17.20;99.90
21559;DHT22;10940;48.890;8.240;2023-07-13T05:24:34;17.20;99.90
21559;DHT22;10940;48.890;8.240;2023-07-13T05:27:00;17.30;99.90
21559;DHT22;10940;48.890;8.240;2023-07-13T05:29:26;17.30;99.90
21559;DHT22;10940;48.890;8.240;2023-07-13T05:31:52;17.30;99.90
21559;DHT22;10940;48.890;8.240;2023-07-13T05:34:17;17.30;99.90
21559;DHT22;10940;48.890;8.240;2023-07-13T05:36:43;17.30;99.90
21559;DHT22;10940;48.890;8.240;2023-07-13T05:39:09;17.40;99.90
21559;DHT22;10940;48.890;8.240;2023-07-13T05:41:35;17.40;99.90
21559;DHT22;10940;48.890;8.240;2023-07-13T05:44:01;17.40;99.90
21559;DHT22;10940;48.890;8.240;2023-07-13T05:46:26;17.40;99.90
21559;DHT22;10940;48.890;8.240;2023-07-13T05:48:52;17.50;99.90
21559;DHT22;10940;48.890;8.240;2023-07-13T05:51:17;17.50;99.90
21559;DHT22;10940;48.890;8.240;2023-07-13T05:53:43;17.60;99.90
21559;DHT22;10940;48.890;8.240;2023-07-13T05:56:09;17.70;99.90
21559;DHT22;10940;48.890;8.240;2023-07-13T05:58:34;17.80;99.90
21559;DHT22;10940;48.890;8.240;2023-07-13T06:01:06;18.00;99.90
21559;DHT22;10940;48.890;8.240;2023-07-13T06:03:33;18.10;99.90
21559;DHT22;10940;48.890;8.240;2023-07-13T06:05:58;18.10;99.90
21559;DHT22;10940;48.890;8.240;2023-07-13T06:08:26;18.20;99.90
21559;DHT22;10940;48.890;8.240;2023-07-13T06:10:52;18.30;99.90
21559;DHT22;10940;48.890;8.240;2023-07-13T06:13:18;18.40;99.90
21559;DHT22;10940;48.890;8.240;2023-07-13T06:15:48;18.50;99.90
21559;DHT22;10940;48.890;8.240;2023-07-13T06:18:14;18.60;99.90
21559;DHT22;10940;48.890;8.240;2023-07-13T06:20:40;18.60;99.90
21559;DHT22;10940;48.890;8.240;2023-07-13T06:23:05;18.70;99.90
21559;DHT22;10940;48.890;8.240;2023-07-13T06:25:31;18.70;99.90
21559;DHT22;10940;48.890;8.240;2023-07-13T06:27:57;18.80;99.90
21559;DHT22;10940;48.890;8.240;2023-07-13T06:30:22;18.80;99.90
21559;DHT22;10940;48.890;8.240;2023-07-13T06:32:49;18.90;99.90
21559;DHT22;10940;48.890;8.240;2023-07-13T06:35:14;19.00;99.90
21559;DHT22;10940;48.890;8.240;2023-07-13T06:37:40;19.10;99.90
21559;DHT22;10940;48.890;8.240;2023-07-13T06:40:06;19.20;99.90
21559;DHT22;10940;48.890;8.240;2023-07-13T06:42:32;19.30;99.90
21559;DHT22;10940;48.890;8.240;2023-07-13T06:44:57;19.40;99.90
21559;DHT22;10940;48.890;8.240;2023-07-13T06:47:23;19.50;99.90
21559;DHT22;10940;48.890;8.240;2023-07-13T06:49:48;19.60;99.90
21559;DHT22;10940;48.890;8.240;2023-07-13T06:52:14;19.60;99.90
21559;DHT22;10940;48.890;8.240;2023-07-13T06:54:39;19.70;99.90
21559;DHT22;10940;48.890;8.240;2023-07-13T06:57:05;19.80;99.90
21559;DHT22;10940;48.890;8.240;2023-07-13T06:59:31;19.80;99.90
21559;DHT22;10940;48.890;8.240;2023-07-13T07:01:57;19.90;99.90
21559;DHT22;10940;48.890;8.240;2023-07-13T07:04:23;20.00;99.90
21559;DHT22;10940;48.890;8.240;2023-07-13T07:06:48;20.00;99.90
21559;DHT22;10940;48.890;8.240;2023-07-13T07:09:14;20.10;99.90
21559;DHT22;10940;48.890;8.240;2023-07-13T07:11:41;20.10;99.90
21559;DHT22;10940;48.890;8.240;2023-07-13T07:14:08;20.20;99.90
21559;DHT22;10940;48.890;8.240;2023-07-13T07:16:33;20.30;99.90
21559;DHT22;10940;48.890;8.240;2023-07-13T07:18:59;20.30;99.90
21559;DHT22;10940;48.890;8.240;2023-07-13T07:21:24;20.40;99.90
21559;DHT22;10940;48.890;8.240;2023-07-13T07:23:52;20.50;99.90
21559;DHT22;10940;48.890;8.240;2023-07-13T07:26:17;20.60;99.90
21559;DHT22;10940;48.890;8.240;2023-07-13T07:28:43;20.60;99.90
21559;DHT22;10940;48.890;8.240;2023-07-13T07:31:09;20.60;99.90
21559;DHT22;10940;48.890;8.240;2023-07-13T07:33:35;20.70;99.90
21559;DHT22;10940;48.890;8.240;2023-07-13T07:36:01;20.80;99.90
21559;DHT22;10940;48.890;8.240;2023-07-13T07:38:27;20.80;99.90
21559;DHT22;10940;48.890;8.240;2023-07-13T07:40:53;20.90;99.90
21559;DHT22;10940;48.890;8.240;2023-07-13T07:43:19;21.00;99.90
21559;DHT22;10940;48.890;8.240;2023-07-13T07:45:45;21.20;99.90
21559;DHT22;10940;48.890;8.240;2023-07-13T07:48:11;21.30;99.90
21559;DHT22;10940;48.890;8.240;2023-07-13T07:50:37;21.30;99.90
21559;DHT22;10940;48.890;8.240;2023-07-13T07:53:05;21.30;99.90
21559;DHT22;10940;48.890;8.240;2023-07-13T07:55:34;21.40;99.90
21559;DHT22;10940;48.890;8.240;2023-07-13T07:58:00;21.40;99.90
21559;DHT22;10940;48.890;8.240;2023-07-13T08:00:26;21.50;99.90
21559;DHT22;10940;48.890;8.240;2023-07-13T08:02:54;21.60;99.90
21559;DHT22;10940;48.890;8.240;2023-07-13T08:05:20;21.70;99.90
21559;DHT22;10940;48.890;8.240;2023-07-13T08:07:45;21.70;99.90
21559;DHT22;10940;48.890;8.240;2023-07-13T08:10:11;21.80;99.90
21559;DHT22;10940;48.890;8.240;2023-07-13T08:12:38;21.90;99.90
21559;DHT22;10940;48.890;8.240;2023-07-13T08:15:06;22.00;99.90
21559;DHT22;10940;48.890;8.240;2023-07-13T08:17:32;22.10;99.90
21559;DHT22;10940;48.890;8.240;2023-07-13T08:19:57;22.30;99.90
21559;DHT22;10940;48.890;8.240;2023-07-13T08:22:23;22.30;99.90
21559;DHT22;10940;48.890;8.240;2023-07-13T08:24:49;22.40;99.90
21559;DHT22;10940;48.890;8.240;2023-07-13T08:27:22;22.50;99.90
21559;DHT22;10940;48.890;8.240;2023-07-13T08:29:48;22.70;99.90
21559;DHT22;10940;48.890;8.240;2023-07-13T08:32:14;22.80;99.90
21559;DHT22;10940;48.890;8.240;2023-07-13T08:34:40;22.80;99.90
21559;DHT22;10940;48.890;8.240;2023-07-13T08:37:06;22.90;99.90
21559;DHT22;10940;48.890;8.240;2023-07-13T08:39:33;22.90;99.90
21559;DHT22;10940;48.890;8.240;2023-07-13T08:42:02;23.00;99.90
21559;DHT22;10940;48.890;8.240;2023-07-13T08:47:12;23.10;99.90
21559;DHT22;10940;48.890;8.240;2023-07-13T08:49:39;23.10;99.90
21559;DHT22;10940;48.890;8.240;2023-07-13T08:52:24;23.20;99.90
21559;DHT22;10940;48.890;8.240;2023-07-13T08:54:55;23.30;99.90
21559;DHT22;10940;48.890;8.240;2023-07-13T08:57:29;23.50;99.90
21559;DHT22;10940;48.890;8.240;2023-07-13T08:59:56;23.60;99.90
21559;DHT22;10940;48.890;8.240;2023-07-13T09:02:46;23.70;99.90
21559;DHT22;10940;48.890;8.240;2023-07-13T09:05:30;23.80;99.90
21559;DHT22;10940;48.890;8.240;2023-07-13T09:10:50;24.00;99.50
21559;DHT22;10940;48.890;8.240;2023-07-13T09:13:35;24.10;98.80
21559;DHT22;10940;48.890;8.240;2023-07-13T09:16:03;24.10;98.30
21559;DHT22;10940;48.890;8.240;2023-07-13T09:18:38;24.20;99.10
21559;DHT22;10940;48.890;8.240;2023-07-13T09:21:20;24.20;99.70
21559;DHT22;10940;48.890;8.240;2023-07-13T09:23:47;24.20;99.00
21559;DHT22;10940;48.890;8.240;2023-07-13T09:26:19;24.30;98.20
21559;DHT22;10940;48.890;8.240;2023-07-13T09:28:48;24.40;98.70
21559;DHT22;10940;48.890;8.240;2023-07-13T09:31:20;24.50;98.60
21559;DHT22;10940;48.890;8.240;2023-07-13T09:33:48;24.60;96.70
21559;DHT22;10940;48.890;8.240;2023-07-13T09:36:28;24.70;97.50
21559;DHT22;10940;48.890;8.240;2023-07-13T09:39:31;24.80;97.10
21559;DHT22;10940;48.890;8.240;2023-07-13T09:44:38;24.90;96.00
21559;DHT22;10940;48.890;8.240;2023-07-13T09:47:16;24.90;95.60
21559;DHT22;10940;48.890;8.240;2023-07-13T09:49:42;24.90;96.60
21559;DHT22;10940;48.890;8.240;2023-07-13T09:52:12;25.00;95.80
21559;DHT22;10940;48.890;8.240;2023-07-13T09:54:43;25.10;96.50
21559;DHT22;10940;48.890;8.240;2023-07-13T09:57:16;25.20;95.30
21559;DHT22;10940;48.890;8.240;2023-07-13T09:59:47;25.20;96.70
21559;DHT22;10940;48.890;8.240;2023-07-13T10:02:30;25.20;96.00
21559;DHT22;10940;48.890;8.240;2023-07-13T10:05:13;25.30;96.00
21559;DHT22;10940;48.890;8.240;2023-07-13T10:07:42;25.40;96.90
21559;DHT22;10940;48.890;8.240;2023-07-13T10:10:18;25.50;96.60
21559;DHT22;10940;48.890;8.240;2023-07-13T10:12:45;25.40;96.00
21559;DHT22;10940;48.890;8.240;2023-07-13T10:15:17;25.40;95.70
21559;DHT22;10940;48.890;8.240;2023-07-13T10:17:43;25.30;96.30
21559;DHT22;10940;48.890;8.240;2023-07-13T10:20:09;25.20;96.40
21559;DHT22;10940;48.890;8.240;2023-07-13T10:25:25;25.20;96.30
21559;DHT22;10940;48.890;8.240;2023-07-13T10:27:53;25.30;95.90
21559;DHT22;10940;48.890;8.240;2023-07-13T10:30:32;25.30;96.50
21559;DHT22;10940;48.890;8.240;2023-07-13T10:33:03;25.40;95.10
21559;DHT22;10940;48.890;8.240;2023-07-13T10:35:34;25.40;95.60
21559;DHT22;10940;48.890;8.240;2023-07-13T10:38:03;25.40;96.10
21559;DHT22;10940;48.890;8.240;2023-07-13T10:40:39;25.40;95.90
21559;DHT22;10940;48.890;8.240;2023-07-13T10:43:20;25.60;94.30
21559;DHT22;10940;48.890;8.240;2023-07-13T10:45:47;25.70;94.20
21559;DHT22;10940;48.890;8.240;2023-07-13T10:48:16;25.80;94.90
21559;DHT22;10940;48.890;8.240;2023-07-13T10:50:44;25.80;95.20
21559;DHT22;10940;48.890;8.240;2023-07-13T10:53:28;25.80;93.80
21559;DHT22;10940;48.890;8.240;2023-07-13T10:56:03;26.00;95.60
21559;DHT22;10940;48.890;8.240;2023-07-13T10:58:38;26.20;94.40
21559;DHT22;10940;48.890;8.240;2023-07-13T11:01:08;26.20;93.90
21559;DHT22;10940;48.890;8.240;2023-07-13T11:03:50;26.30;93.50
21559;DHT22;10940;48.890;8.240;2023-07-13T11:09:30;26.60;93.80
21559;DHT22;10940;48.890;8.240;2023-07-13T11:12:06;26.90;94.80
21559;DHT22;10940;48.890;8.240;2023-07-13T11:14:44;27.10;93.50
21559;DHT22;10940;48.890;8.240;2023-07-13T11:17:45;27.20;93.60
21559;DHT22;10940;48.890;8.240;2023-07-13T11:25:35;26.90;92.90
21559;DHT22;10940;48.890;8.240;2023-07-13T11:36:14;27.50;93.00
21559;DHT22;10940;48.890;8.240;2023-07-13T11:38:47;27.90;92.70
21559;DHT22;10940;48.890;8.240;2023-07-13T11:41:18;28.20;91.90
21559;DHT22;10940;48.890;8.240;2023-07-13T11:43:45;28.50;91.60
21559;DHT22;10940;48.890;8.240;2023-07-13T11:46:26;28.70;91.30
21559;DHT22;10940;48.890;8.240;2023-07-13T11:48:53;28.90;91.30
21559;DHT22;10940;48.890;8.240;2023-07-13T11:51:27;29.10;85.70
21559;DHT22;10940;48.890;8.240;2023-07-13T11:53:55;29.10;86.30
21559;DHT22;10940;48.890;8.240;2023-07-13T11:56:23;29.10;86.20
21559;DHT22;10940;48.890;8.240;2023-07-13T11:58:54;29.00;89.30
21559;DHT22;10940;48.890;8.240;2023-07-13T12:01:24;29.00;90.20
21559;DHT22;10940;48.890;8.240;2023-07-13T12:03:51;29.00;85.70
21559;DHT22;10940;48.890;8.240;2023-07-13T12:06:29;29.10;87.70
21559;DHT22;10940;48.890;8.240;2023-07-13T12:09:03;29.10;85.80
21559;DHT22;10940;48.890;8.240;2023-07-13T12:11:39;29.10;87.30
21559;DHT22;10940;48.890;8.240;2023-07-13T12:14:05;29.10;84.40
21559;DHT22;10940;48.890;8.240;2023-07-13T12:16:32;29.20;87.70
21559;DHT22;10940;48.890;8.240;2023-07-13T12:19:00;29.30;87.90
21559;DHT22;10940;48.890;8.240;2023-07-13T12:21:36;29.40;88.40
21559;DHT22;10940;48.890;8.240;2023-07-13T12:24:02;29.40;84.40
21559;DHT22;10940;48.890;8.240;2023-07-13T12:26:30;29.20;84.20
21559;DHT22;10940;48.890;8.240;2023-07-13T12:29:00;29.20;83.60
21559;DHT22;10940;48.890;8.240;2023-07-13T12:31:47;29.10;83.70
21559;DHT22;10940;48.890;8.240;2023-07-13T12:41:50;28.10;85.10
21559;DHT22;10940;48.890;8.240;2023-07-13T12:44:29;28.00;85.00
21559;DHT22;10940;48.890;8.240;2023-07-13T12:46:59;28.00;89.00
21559;DHT22;10940;48.890;8.240;2023-07-13T12:49:31;28.10;85.60
21559;DHT22;10940;48.890;8.240;2023-07-13T12:52:02;28.40;87.90
21559;DHT22;10940;48.890;8.240;2023-07-13T12:54:29;28.60;85.40
21559;DHT22;10940;48.890;8.240;2023-07-13T12:56:55;28.80;83.40
21559;DHT22;10940;48.890;8.240;2023-07-13T12:59:24;28.90;82.30
21559;DHT22;10940;48.890;8.240;2023-07-13T13:01:51;29.10;84.50
21559;DHT22;10940;48.890;8.240;2023-07-13T13:04:17;29.20;82.60
21559;DHT22;10940;48.890;8.240;2023-07-13T13:06:47;29.30;81.90
21559;DHT22;10940;48.890;8.240;2023-07-13T13:09:14;29.40;82.30
21559;DHT22;10940;48.890;8.240;2023-07-13T13:11:40;29.30;82.70
21559;DHT22;10940;48.890;8.240;2023-07-13T13:14:07;29.30;82.20
21559;DHT22;10940;48.890;8.240;2023-07-13T13:16:35;29.40;83.10
21559;DHT22;10940;48.890;8.240;2023-07-13T13:19:21;29.60;81.60
21559;DHT22;10940;48.890;8.240;2023-07-13T13:21:50;29.60;78.80
21559;DHT22;10940;48.890;8.240;2023-07-13T13:24:20;29.60;81.20
21559;DHT22;10940;48.890;8.240;2023-07-13T13:26:46;29.70;81.20
21559;DHT22;10940;48.890;8.240;2023-07-13T13:29:18;29.90;80.20
21559;DHT22;10940;48.890;8.240;2023-07-13T13:31:44;30.00;78.20
21559;DHT22;10940;48.890;8.240;2023-07-13T13:34:12;30.00;77.70
21559;DHT22;10940;48.890;8.240;2023-07-13T13:36:39;29.80;77.60
21559;DHT22;10940;48.890;8.240;2023-07-13T13:41:51;29.00;77.30
21559;DHT22;10940;48.890;8.240;2023-07-13T13:44:17;28.80;79.20
21559;DHT22;10940;48.890;8.240;2023-07-13T13:46:50;28.80;78.10
21559;DHT22;10940;48.890;8.240;2023-07-13T13:49:18;28.80;80.00
21559;DHT22;10940;48.890;8.240;2023-07-13T13:51:45;29.00;78.50
21559;DHT22;10940;48.890;8.240;2023-07-13T13:54:15;29.20;83.70
21559;DHT22;10940;48.890;8.240;2023-07-13T13:56:47;29.40;81.30
21559;DHT22;10940;48.890;8.240;2023-07-13T13:59:13;29.50;77.90
21559;DHT22;10940;48.890;8.240;2023-07-13T14:01:40;29.50;79.40
21559;DHT22;10940;48.890;8.240;2023-07-13T14:04:16;29.50;80.90
21559;DHT22;10940;48.890;8.240;2023-07-13T14:06:43;29.50;79.00
21559;DHT22;10940;48.890;8.240;2023-07-13T14:09:12;29.50;78.90
21559;DHT22;10940;48.890;8.240;2023-07-13T14:11:38;29.60;78.40
21559;DHT22;10940;48.890;8.240;2023-07-13T14:14:14;29.60;81.20
21559;DHT22;10940;48.890;8.240;2023-07-13T14:16:41;29.60;78.00
21559;DHT22;10940;48.890;8.240;2023-07-13T14:19:11;29.50;78.90
21559;DHT22;10940;48.890;8.240;2023-07-13T14:21:37;29.30;78.10
21559;DHT22;10940;48.890;8.240;2023-07-13T14:24:03;29.00;78.90
21559;DHT22;10940;48.890;8.240;2023-07-13T14:26:36;28.90;79.80
21559;DHT22;10940;48.890;8.240;2023-07-13T14:29:04;28.90;80.20
21559;DHT22;10940;48.890;8.240;2023-07-13T14:31:30;29.00;80.30
21559;DHT22;10940;48.890;8.240;2023-07-13T14:33:56;29.10;79.70
21559;DHT22;10940;48.890;8.240;2023-07-13T14:36:27;29.10;79.80
21559;DHT22;10940;48.890;8.240;2023-07-13T14:38:53;29.20;78.40
21559;DHT22;10940;48.890;8.240;2023-07-13T14:41:19;29.20;80.50
21559;DHT22;10940;48.890;8.240;2023-07-13T14:43:46;29.20;81.40
21559;DHT22;10940;48.890;8.240;2023-07-13T14:46:30;29.30;79.40
21559;DHT22;10940;48.890;8.240;2023-07-13T14:49:13;29.40;78.40
21559;DHT22;10940;48.890;8.240;2023-07-13T14:51:40;29.40;80.40
21559;DHT22;10940;48.890;8.240;2023-07-13T14:54:08;29.40;78.60
21559;DHT22;10940;48.890;8.240;2023-07-13T14:56:34;29.20;77.50
21559;DHT22;10940;48.890;8.240;2023-07-13T14:59:00;29.10;80.20
21559;DHT22;10940;48.890;8.240;2023-07-13T15:01:25;29.10;80.20
21559;DHT22;10940;48.890;8.240;2023-07-13T15:03:53;28.90;77.30
21559;DHT22;10940;48.890;8.240;2023-07-13T15:06:19;28.70;78.60
21559;DHT22;10940;48.890;8.240;2023-07-13T15:08:45;28.60;78.80
21559;DHT22;10940;48.890;8.240;2023-07-13T15:11:12;28.60;80.60
21559;DHT22;10940;48.890;8.240;2023-07-13T15:13:41;28.60;82.20
21559;DHT22;10940;48.890;8.240;2023-07-13T15:16:16;28.70;81.10
21559;DHT22;10940;48.890;8.240;2023-07-13T15:18:42;28.70;79.40
21559;DHT22;10940;48.890;8.240;2023-07-13T15:21:21;28.70;80.60
21559;DHT22;10940;48.890;8.240;2023-07-13T15:23:48;28.70;78.30
21559;DHT22;10940;48.890;8.240;2023-07-13T15:26:14;28.50;79.20
21559;DHT22;10940;48.890;8.240;2023-07-13T15:28:44;28.50;79.60
21559;DHT22;10940;48.890;8.240;2023-07-13T15:31:22;28.40;79.40
21559;DHT22;10940;48.890;8.240;2023-07-13T15:33:50;28.50;79.70
21559;DHT22;10940;48.890;8.240;2023-07-13T15:36:17;28.50;81.80
21559;DHT22;10940;48.890;8.240;2023-07-13T15:38:43;28.60;83.50
21559;DHT22;10940;48.890;8.240;2023-07-13T15:41:17;28.70;82.80
21559;DHT22;10940;48.890;8.240;2023-07-13T15:43:44;28.70;79.40
21559;DHT22;10940;48.890;8.240;2023-07-13T15:46:10;28.70;79.10
21559;DHT22;10940;48.890;8.240;2023-07-13T15:48:36;28.60;78.50
21559;DHT22;10940;48.890;8.240;2023-07-13T15:51:03;28.60;79.30
21559;DHT22;10940;48.890;8.240;2023-07-13T15:53:34;28.60;78.40
21559;DHT22;10940;48.890;8.240;2023-07-13T15:56:03;28.50;78.60
21559;DHT22;10940;48.890;8.240;2023-07-13T15:58:35;28.50;81.00
21559;DHT22;10940;48.890;8.240;2023-07-13T16:01:00;28.50;79.40
21559;DHT22;10940;48.890;8.240;2023-07-13T16:03:26;28.40;78.20
21559;DHT22;10940;48.890;8.240;2023-07-13T16:05:53;28.30;81.30
21559;DHT22;10940;48.890;8.240;2023-07-13T16:08:27;28.40;80.90
21559;DHT22;10940;48.890;8.240;2023-07-13T16:10:53;28.40;82.60
21559;DHT22;10940;48.890;8.240;2023-07-13T16:13:20;28.50;78.60
21559;DHT22;10940;48.890;8.240;2023-07-13T16:15:46;28.40;78.50
21559;DHT22;10940;48.890;8.240;2023-07-13T16:18:13;28.30;80.70
21559;DHT22;10940;48.890;8.240;2023-07-13T16:20:40;28.30;79.00
21559;DHT22;10940;48.890;8.240;2023-07-13T16:23:09;28.30;80.20